sensor_id;sensor_type;location;lat;lon;timestamp;P1;durP1;ratioP1;P2;durP2;ratioP2
61291;SDS011;47165;42.664;23.368;2022-09-21T00:02:09;2.25;;;1.98;;
61291;SDS011;47165;42.664;23.368;2022-09-21T00:04:34;2.33;;;1.63;;
61291;SDS011;47165;42.664;23.368;2022-09-21T00:07:00;4.40;;;2.63;;
61291;SDS011;47165;42.664;23.368;2022-09-21T00:09:25;3.72;;;2.47;;
61291;SDS011;47165;42.664;23.368;2022-09-21T00:11:50;3.72;;;2.05;;
61291;SDS011;47165;42.664;23.368;2022-09-21T00:14:16;3.22;;;2.45;;
61291;SDS011;47165;42.664;23.368;2022-09-21T00:16:43;2.83;;;2.03;;
61291;SDS011;47165;42.664;23.368;2022-09-21T00:19:09;3.17;;;1.55;;
61291;SDS011;47165;42.664;23.368;2022-09-21T00:21:35;3.90;;;2.78;;
61291;SDS011;47165;42.664;23.368;2022-09-21T00:24:02;5.70;;;2.35;;
61291;SDS011;47165;42.664;23.368;2022-09-21T00:26:28;6.10;;;3.03;;
61291;SDS011;47165;42.664;23.368;2022-09-21T00:28:58;4.25;;;2.63;;
61291;SDS011;47165;42.664;23.368;2022-09-21T00:31:26;4.32;;;2.70;;
61291;SDS011;47165;42.664;23.368;2022-09-21T00:33:52;3.10;;;2.30;;
61291;SDS011;47165;42.664;23.368;2022-09-21T00:36:19;4.00;;;2.55;;
61291;SDS011;47165;42.664;23.368;2022-09-21T00:38:51;2.78;;;2.08;;
61291;SDS011;47165;42.664;23.368;2022-09-21T00:41:18;5.28;;;2.33;;
61291;SDS011;47165;42.664;23.368;2022-09-21T00:43:47;4.38;;;1.95;;
61291;SDS011;47165;42.664;23.368;2022-09-21T00:46:33;4.30;;;2.35;;
61291;SDS011;47165;42.664;23.368;2022-09-21T00:49:00;3.40;;;2.30;;
61291;SDS011;47165;42.664;23.368;2022-09-21T00:51:25;2.90;;;1.98;;
61291;SDS011;47165;42.664;23.368;2022-09-21T00:53:52;6.20;;;2.63;;
61291;SDS011;47165;42.664;23.368;2022-09-21T00:56:22;3.88;;;2.67;;
61291;SDS011;47165;42.664;23.368;2022-09-21T00:58:48;3.72;;;2.15;;
61291;SDS011;47165;42.664;23.368;2022-09-21T01:01:16;4.35;;;2.50;;
61291;SDS011;47165;42.664;23.368;2022-09-21T01:03:43;4.18;;;2.50;;
61291;SDS011;47165;42.664;23.368;2022-09-21T01:06:11;5.90;;;2.65;;
61291;SDS011;47165;42.664;23.368;2022-09-21T01:08:40;4.90;;;2.78;;
61291;SDS011;47165;42.664;23.368;2022-09-21T01:16:33;3.22;;;2.47;;
61291;SDS011;47165;42.664;23.368;2022-09-21T01:19:26;6.78;;;3.10;;
61291;SDS011;47165;42.664;23.368;2022-09-21T01:22:14;6.65;;;3.65;;
61291;SDS011;47165;42.664;23.368;2022-09-21T01:25:16;5.10;;;3.30;;
61291;SDS011;47165;42.664;23.368;2022-09-21T01:33:15;2.58;;;2.28;;
61291;SDS011;47165;42.664;23.368;2022-09-21T01:35:47;2.95;;;2.08;;
61291;SDS011;47165;42.664;23.368;2022-09-21T01:38:24;4.13;;;2.72;;
61291;SDS011;47165;42.664;23.368;2022-09-21T01:40:55;4.03;;;2.78;;
61291;SDS011;47165;42.664;23.368;2022-09-21T01:43:45;5.97;;;2.90;;
61291;SDS011;47165;42.664;23.368;2022-09-21T01:46:16;4.05;;;2.65;;
61291;SDS011;47165;42.664;23.368;2022-09-21T01:48:49;3.10;;;2.10;;
61291;SDS011;47165;42.664;23.368;2022-09-21T01:51:18;4.75;;;2.47;;
61291;SDS011;47165;42.664;23.368;2022-09-21T01:53:47;3.60;;;2.03;;
61291;SDS011;47165;42.664;23.368;2022-09-21T01:56:19;4.25;;;2.30;;
61291;SDS011;47165;42.664;23.368;2022-09-21T02:01:43;3.70;;;1.85;;
61291;SDS011;47165;42.664;23.368;2022-09-21T02:04:12;3.78;;;2.28;;
61291;SDS011;47165;42.664;23.368;2022-09-21T02:06:41;3.50;;;2.60;;
61291;SDS011;47165;42.664;23.368;2022-09-21T02:09:09;3.22;;;2.28;;
61291;SDS011;47165;42.664;23.368;2022-09-21T02:11:35;3.85;;;2.67;;
61291;SDS011;47165;42.664;23.368;2022-09-21T02:14:02;3.80;;;2.35;;
61291;SDS011;47165;42.664;23.368;2022-09-21T02:16:33;4.00;;;2.40;;
61291;SDS011;47165;42.664;23.368;2022-09-21T02:22:08;4.65;;;2.42;;
61291;SDS011;47165;42.664;23.368;2022-09-21T02:24:49;4.07;;;3.05;;
61291;SDS011;47165;42.664;23.368;2022-09-21T02:27:23;2.80;;;2.25;;
61291;SDS011;47165;42.664;23.368;2022-09-21T02:30:22;4.93;;;2.15;;
61291;SDS011;47165;42.664;23.368;2022-09-21T02:35:38;5.13;;;2.53;;
61291;SDS011;47165;42.664;23.368;2022-09-21T02:38:41;3.75;;;2.33;;
61291;SDS011;47165;42.664;23.368;2022-09-21T02:41:56;3.22;;;2.33;;
61291;SDS011;47165;42.664;23.368;2022-09-21T02:44:06;4.47;;;2.30;;
61291;SDS011;47165;42.664;23.368;2022-09-21T02:47:00;2.70;;;2.03;;
61291;SDS011;47165;42.664;23.368;2022-09-21T02:49:35;4.18;;;1.98;;
61291;SDS011;47165;42.664;23.368;2022-09-21T02:52:04;2.60;;;1.90;;
61291;SDS011;47165;42.664;23.368;2022-09-21T02:54:36;2.17;;;1.63;;
61291;SDS011;47165;42.664;23.368;2022-09-21T02:57:04;3.35;;;1.85;;
61291;SDS011;47165;42.664;23.368;2022-09-21T02:59:31;3.08;;;1.92;;
61291;SDS011;47165;42.664;23.368;2022-09-21T03:01:56;2.72;;;1.80;;
61291;SDS011;47165;42.664;23.368;2022-09-21T03:04:22;4.57;;;1.70;;
61291;SDS011;47165;42.664;23.368;2022-09-21T03:06:48;2.60;;;1.90;;
61291;SDS011;47165;42.664;23.368;2022-09-21T03:09:13;2.20;;;2.00;;
61291;SDS011;47165;42.664;23.368;2022-09-21T03:11:39;3.30;;;2.30;;
61291;SDS011;47165;42.664;23.368;2022-09-21T03:14:06;2.88;;;2.00;;
61291;SDS011;47165;42.664;23.368;2022-09-21T03:16:33;2.22;;;1.98;;
61291;SDS011;47165;42.664;23.368;2022-09-21T03:19:02;1.80;;;1.65;;
61291;SDS011;47165;42.664;23.368;2022-09-21T03:21:28;2.05;;;1.73;;
61291;SDS011;47165;42.664;23.368;2022-09-21T03:23:53;2.13;;;1.75;;
61291;SDS011;47165;42.664;23.368;2022-09-21T03:26:19;3.40;;;1.95;;
61291;SDS011;47165;42.664;23.368;2022-09-21T03:28:46;3.55;;;2.45;;
61291;SDS011;47165;42.664;23.368;2022-09-21T03:31:13;3.50;;;2.25;;
61291;SDS011;47165;42.664;23.368;2022-09-21T03:33:38;4.90;;;2.28;;
61291;SDS011;47165;42.664;23.368;2022-09-21T03:36:04;2.28;;;1.88;;
61291;SDS011;47165;42.664;23.368;2022-09-21T03:38:29;2.60;;;1.80;;
61291;SDS011;47165;42.664;23.368;2022-09-21T03:40:55;3.47;;;2.13;;
61291;SDS011;47165;42.664;23.368;2022-09-21T03:43:21;8.48;;;2.83;;
61291;SDS011;47165;42.664;23.368;2022-09-21T03:45:47;2.35;;;2.00;;
61291;SDS011;47165;42.664;23.368;2022-09-21T03:48:12;4.65;;;2.65;;
61291;SDS011;47165;42.664;23.368;2022-09-21T03:50:39;4.80;;;2.78;;
61291;SDS011;47165;42.664;23.368;2022-09-21T03:53:05;6.47;;;3.40;;
61291;SDS011;47165;42.664;23.368;2022-09-21T03:55:31;3.70;;;2.40;;
61291;SDS011;47165;42.664;23.368;2022-09-21T03:57:57;4.85;;;2.90;;
61291;SDS011;47165;42.664;23.368;2022-09-21T04:00:23;3.78;;;2.70;;
61291;SDS011;47165;42.664;23.368;2022-09-21T04:02:48;5.75;;;2.55;;
61291;SDS011;47165;42.664;23.368;2022-09-21T04:05:14;3.45;;;2.00;;
61291;SDS011;47165;42.664;23.368;2022-09-21T04:07:41;4.63;;;2.10;;
61291;SDS011;47165;42.664;23.368;2022-09-21T04:10:10;3.08;;;2.08;;
61291;SDS011;47165;42.664;23.368;2022-09-21T04:12:37;3.47;;;2.33;;
61291;SDS011;47165;42.664;23.368;2022-09-21T04:15:03;3.13;;;1.92;;
61291;SDS011;47165;42.664;23.368;2022-09-21T04:17:31;3.25;;;2.05;;
61291;SDS011;47165;42.664;23.368;2022-09-21T04:19:57;3.08;;;2.33;;
61291;SDS011;47165;42.664;23.368;2022-09-21T04:22:23;4.18;;;2.35;;
61291;SDS011;47165;42.664;23.368;2022-09-21T04:24:49;4.47;;;2.47;;
61291;SDS011;47165;42.664;23.368;2022-09-21T04:27:14;2.80;;;2.13;;
61291;SDS011;47165;42.664;23.368;2022-09-21T04:29:40;3.28;;;2.47;;
61291;SDS011;47165;42.664;23.368;2022-09-21T04:32:05;3.05;;;2.08;;
61291;SDS011;47165;42.664;23.368;2022-09-21T04:34:31;4.82;;;2.35;;
61291;SDS011;47165;42.664;23.368;2022-09-21T04:36:57;3.42;;;2.10;;
61291;SDS011;47165;42.664;23.368;2022-09-21T04:39:23;5.82;;;2.65;;
61291;SDS011;47165;42.664;23.368;2022-09-21T04:41:49;4.15;;;2.35;;
61291;SDS011;47165;42.664;23.368;2022-09-21T04:44:15;2.65;;;2.00;;
61291;SDS011;47165;42.664;23.368;2022-09-21T04:46:43;3.67;;;2.63;;
61291;SDS011;47165;42.664;23.368;2022-09-21T04:49:09;4.43;;;2.47;;
61291;SDS011;47165;42.664;23.368;2022-09-21T04:51:34;4.40;;;2.85;;
61291;SDS011;47165;42.664;23.368;2022-09-21T04:54:00;3.75;;;2.58;;
61291;SDS011;47165;42.664;23.368;2022-09-21T04:56:26;5.50;;;2.63;;
61291;SDS011;47165;42.664;23.368;2022-09-21T04:58:52;3.55;;;2.75;;
61291;SDS011;47165;42.664;23.368;2022-09-21T05:01:17;4.22;;;2.53;;
61291;SDS011;47165;42.664;23.368;2022-09-21T05:03:43;4.68;;;2.67;;
61291;SDS011;47165;42.664;23.368;2022-09-21T05:06:08;4.72;;;2.85;;
61291;SDS011;47165;42.664;23.368;2022-09-21T05:08:37;4.68;;;2.90;;
61291;SDS011;47165;42.664;23.368;2022-09-21T05:11:22;2.65;;;2.40;;
61291;SDS011;47165;42.664;23.368;2022-09-21T05:13:48;2.42;;;2.20;;
61291;SDS011;47165;42.664;23.368;2022-09-21T05:16:14;5.25;;;3.10;;
61291;SDS011;47165;42.664;23.368;2022-09-21T05:18:41;5.20;;;2.60;;
61291;SDS011;47165;42.664;23.368;2022-09-21T05:21:06;4.38;;;2.55;;
61291;SDS011;47165;42.664;23.368;2022-09-21T05:23:32;2.83;;;2.00;;
61291;SDS011;47165;42.664;23.368;2022-09-21T05:25:58;3.60;;;2.13;;
61291;SDS011;47165;42.664;23.368;2022-09-21T05:28:24;3.90;;;2.70;;
61291;SDS011;47165;42.664;23.368;2022-09-21T05:30:52;4.18;;;2.33;;
61291;SDS011;47165;42.664;23.368;2022-09-21T05:33:19;5.22;;;2.80;;
61291;SDS011;47165;42.664;23.368;2022-09-21T05:38:50;4.50;;;2.47;;
61291;SDS011;47165;42.664;23.368;2022-09-21T05:41:15;3.92;;;2.60;;
61291;SDS011;47165;42.664;23.368;2022-09-21T05:43:41;5.18;;;3.08;;
61291;SDS011;47165;42.664;23.368;2022-09-21T05:46:54;6.03;;;3.47;;
61291;SDS011;47165;42.664;23.368;2022-09-21T05:49:02;6.95;;;3.15;;
61291;SDS011;47165;42.664;23.368;2022-09-21T05:57:25;6.05;;;2.95;;
61291;SDS011;47165;42.664;23.368;2022-09-21T06:05:11;4.97;;;2.83;;
61291;SDS011;47165;42.664;23.368;2022-09-21T06:07:37;5.53;;;3.30;;
61291;SDS011;47165;42.664;23.368;2022-09-21T06:10:03;5.50;;;2.63;;
61291;SDS011;47165;42.664;23.368;2022-09-21T06:12:29;7.20;;;3.40;;
61291;SDS011;47165;42.664;23.368;2022-09-21T06:14:54;5.97;;;3.22;;
61291;SDS011;47165;42.664;23.368;2022-09-21T06:17:20;3.75;;;3.22;;
61291;SDS011;47165;42.664;23.368;2022-09-21T06:19:46;3.78;;;2.90;;
61291;SDS011;47165;42.664;23.368;2022-09-21T06:22:11;5.38;;;3.88;;
61291;SDS011;47165;42.664;23.368;2022-09-21T06:24:37;5.53;;;3.67;;
61291;SDS011;47165;42.664;23.368;2022-09-21T06:27:02;9.32;;;5.13;;
61291;SDS011;47165;42.664;23.368;2022-09-21T06:29:28;25.00;;;14.20;;
61291;SDS011;47165;42.664;23.368;2022-09-21T06:31:53;32.85;;;19.55;;
61291;SDS011;47165;42.664;23.368;2022-09-21T06:34:18;23.33;;;13.20;;
61291;SDS011;47165;42.664;23.368;2022-09-21T06:36:44;6.07;;;3.88;;
61291;SDS011;47165;42.664;23.368;2022-09-21T06:39:09;6.03;;;3.85;;
61291;SDS011;47165;42.664;23.368;2022-09-21T06:41:35;11.90;;;3.97;;
61291;SDS011;47165;42.664;23.368;2022-09-21T06:44:01;7.97;;;3.78;;
61291;SDS011;47165;42.664;23.368;2022-09-21T06:46:26;5.05;;;3.63;;
61291;SDS011;47165;42.664;23.368;2022-09-21T06:48:52;5.53;;;3.70;;
61291;SDS011;47165;42.664;23.368;2022-09-21T06:51:17;5.13;;;3.10;;
61291;SDS011;47165;42.664;23.368;2022-09-21T06:53:44;3.03;;;1.67;;
61291;SDS011;47165;42.664;23.368;2022-09-21T06:56:10;2.85;;;1.40;;
61291;SDS011;47165;42.664;23.368;2022-09-21T06:58:36;1.63;;;1.13;;
61291;SDS011;47165;42.664;23.368;2022-09-21T07:01:09;4.18;;;1.73;;
61291;SDS011;47165;42.664;23.368;2022-09-21T07:03:37;1.35;;;1.05;;
61291;SDS011;47165;42.664;23.368;2022-09-21T07:06:03;3.15;;;1.48;;
61291;SDS011;47165;42.664;23.368;2022-09-21T07:08:30;1.67;;;1.42;;
61291;SDS011;47165;42.664;23.368;2022-09-21T07:10:59;1.55;;;0.98;;
61291;SDS011;47165;42.664;23.368;2022-09-21T07:13:26;1.75;;;0.95;;
61291;SDS011;47165;42.664;23.368;2022-09-21T07:15:52;2.33;;;1.17;;
61291;SDS011;47165;42.664;23.368;2022-09-21T07:18:17;2.38;;;1.25;;
61291;SDS011;47165;42.664;23.368;2022-09-21T07:20:43;2.55;;;1.33;;
61291;SDS011;47165;42.664;23.368;2022-09-21T07:23:12;1.33;;;1.02;;
61291;SDS011;47165;42.664;23.368;2022-09-21T07:25:46;2.05;;;1.10;;
61291;SDS011;47165;42.664;23.368;2022-09-21T07:28:16;1.08;;;0.93;;
61291;SDS011;47165;42.664;23.368;2022-09-21T07:30:42;4.90;;;1.42;;
61291;SDS011;47165;42.664;23.368;2022-09-21T07:33:08;1.05;;;0.93;;
61291;SDS011;47165;42.664;23.368;2022-09-21T07:35:34;5.20;;;1.23;;
61291;SDS011;47165;42.664;23.368;2022-09-21T07:38:00;2.13;;;1.50;;
61291;SDS011;47165;42.664;23.368;2022-09-21T07:40:27;5.10;;;1.92;;
61291;SDS011;47165;42.664;23.368;2022-09-21T07:42:56;2.47;;;1.33;;
61291;SDS011;47165;42.664;23.368;2022-09-21T07:45:26;2.45;;;1.70;;
61291;SDS011;47165;42.664;23.368;2022-09-21T07:47:51;1.40;;;1.30;;
61291;SDS011;47165;42.664;23.368;2022-09-21T07:50:21;1.58;;;1.48;;
61291;SDS011;47165;42.664;23.368;2022-09-21T07:52:47;1.52;;;1.15;;
61291;SDS011;47165;42.664;23.368;2022-09-21T07:55:13;1.77;;;1.58;;
61291;SDS011;47165;42.664;23.368;2022-09-21T07:57:39;3.88;;;1.88;;
61291;SDS011;47165;42.664;23.368;2022-09-21T08:00:23;2.60;;;1.85;;
61291;SDS011;47165;42.664;23.368;2022-09-21T08:02:49;2.45;;;1.30;;
61291;SDS011;47165;42.664;23.368;2022-09-21T08:05:14;2.40;;;1.45;;
61291;SDS011;47165;42.664;23.368;2022-09-21T08:07:40;1.92;;;1.45;;
61291;SDS011;47165;42.664;23.368;2022-09-21T08:10:06;2.20;;;1.40;;
61291;SDS011;47165;42.664;23.368;2022-09-21T08:12:32;4.10;;;1.88;;
61291;SDS011;47165;42.664;23.368;2022-09-21T08:14:57;2.85;;;1.63;;
61291;SDS011;47165;42.664;23.368;2022-09-21T08:17:23;1.23;;;1.13;;
61291;SDS011;47165;42.664;23.368;2022-09-21T08:19:48;3.53;;;1.10;;
61291;SDS011;47165;42.664;23.368;2022-09-21T08:25:26;4.82;;;1.42;;
61291;SDS011;47165;42.664;23.368;2022-09-21T08:27:56;2.67;;;1.60;;
61291;SDS011;47165;42.664;23.368;2022-09-21T08:30:22;3.42;;;1.73;;
61291;SDS011;47165;42.664;23.368;2022-09-21T08:32:47;3.40;;;1.48;;
61291;SDS011;47165;42.664;23.368;2022-09-21T08:35:13;2.45;;;1.33;;
61291;SDS011;47165;42.664;23.368;2022-09-21T08:37:38;2.92;;;1.40;;
61291;SDS011;47165;42.664;23.368;2022-09-21T08:40:04;5.60;;;2.08;;
61291;SDS011;47165;42.664;23.368;2022-09-21T08:43:34;2.10;;;1.60;;
61291;SDS011;47165;42.664;23.368;2022-09-21T08:45:40;1.83;;;1.05;;
61291;SDS011;47165;42.664;23.368;2022-09-21T08:48:15;1.73;;;1.25;;
61291;SDS011;47165;42.664;23.368;2022-09-21T08:50:58;1.67;;;1.13;;
61291;SDS011;47165;42.664;23.368;2022-09-21T08:53:37;1.73;;;1.27;;
61291;SDS011;47165;42.664;23.368;2022-09-21T08:56:10;3.10;;;1.67;;
61291;SDS011;47165;42.664;23.368;2022-09-21T08:58:37;1.05;;;0.95;;
61291;SDS011;47165;42.664;23.368;2022-09-21T09:09:12;1.55;;;1.23;;
61291;SDS011;47165;42.664;23.368;2022-09-21T09:17:26;3.22;;;1.05;;
61291;SDS011;47165;42.664;23.368;2022-09-21T09:25:35;0.90;;;0.82;;
61291;SDS011;47165;42.664;23.368;2022-09-21T09:28:15;1.23;;;0.95;;
61291;SDS011;47165;42.664;23.368;2022-09-21T09:30:48;1.52;;;1.08;;
61291;SDS011;47165;42.664;23.368;2022-09-21T09:33:29;1.55;;;1.05;;
61291;SDS011;47165;42.664;23.368;2022-09-21T09:36:04;1.10;;;1.00;;
61291;SDS011;47165;42.664;23.368;2022-09-21T09:52:33;1.92;;;1.35;;
61291;SDS011;47165;42.664;23.368;2022-09-21T09:55:00;1.98;;;1.05;;
61291;SDS011;47165;42.664;23.368;2022-09-21T09:57:46;1.55;;;0.93;;
61291;SDS011;47165;42.664;23.368;2022-09-21T10:00:16;1.30;;;0.88;;
61291;SDS011;47165;42.664;23.368;2022-09-21T10:05:36;2.80;;;1.88;;
61291;SDS011;47165;42.664;23.368;2022-09-21T10:08:02;0.70;;;0.70;;
61291;SDS011;47165;42.664;23.368;2022-09-21T10:15:57;1.23;;;0.98;;
61291;SDS011;47165;42.664;23.368;2022-09-21T10:18:35;1.25;;;0.88;;
61291;SDS011;47165;42.664;23.368;2022-09-21T10:21:04;1.42;;;0.70;;
61291;SDS011;47165;42.664;23.368;2022-09-21T10:23:31;0.73;;;0.60;;
61291;SDS011;47165;42.664;23.368;2022-09-21T10:26:03;1.42;;;0.98;;
61291;SDS011;47165;42.664;23.368;2022-09-21T10:28:33;1.30;;;0.60;;
61291;SDS011;47165;42.664;23.368;2022-09-21T10:31:10;1.08;;;0.80;;
61291;SDS011;47165;42.664;23.368;2022-09-21T10:33:48;1.23;;;1.02;;
61291;SDS011;47165;42.664;23.368;2022-09-21T10:36:26;0.95;;;0.73;;
61291;SDS011;47165;42.664;23.368;2022-09-21T10:38:54;1.10;;;0.90;;
61291;SDS011;47165;42.664;23.368;2022-09-21T10:41:20;1.90;;;0.93;;
61291;SDS011;47165;42.664;23.368;2022-09-21T10:43:47;2.38;;;0.90;;
61291;SDS011;47165;42.664;23.368;2022-09-21T10:46:14;0.50;;;0.50;;
61291;SDS011;47165;42.664;23.368;2022-09-21T10:48:40;1.58;;;1.13;;
61291;SDS011;47165;42.664;23.368;2022-09-21T10:51:18;1.05;;;0.70;;
61291;SDS011;47165;42.664;23.368;2022-09-21T10:53:51;0.70;;;0.60;;
61291;SDS011;47165;42.664;23.368;2022-09-21T10:56:17;1.23;;;0.60;;
61291;SDS011;47165;42.664;23.368;2022-09-21T11:01:47;3.00;;;0.93;;
61291;SDS011;47165;42.664;23.368;2022-09-21T11:07:05;2.40;;;0.80;;
61291;SDS011;47165;42.664;23.368;2022-09-21T11:09:38;1.48;;;0.82;;
61291;SDS011;47165;42.664;23.368;2022-09-21T11:12:31;0.80;;;0.60;;
61291;SDS011;47165;42.664;23.368;2022-09-21T11:15:11;1.17;;;0.80;;
61291;SDS011;47165;42.664;23.368;2022-09-21T11:17:41;0.75;;;0.70;;
61291;SDS011;47165;42.664;23.368;2022-09-21T11:39:09;0.55;;;0.30;;
61291;SDS011;47165;42.664;23.368;2022-09-21T11:44:59;0.80;;;0.52;;
61291;SDS011;47165;42.664;23.368;2022-09-21T11:55:58;0.60;;;0.47;;
61291;SDS011;47165;42.664;23.368;2022-09-21T11:58:31;0.90;;;0.40;;
61291;SDS011;47165;42.664;23.368;2022-09-21T12:01:25;3.33;;;0.43;;
61291;SDS011;47165;42.664;23.368;2022-09-21T12:04:03;0.60;;;0.50;;
61291;SDS011;47165;42.664;23.368;2022-09-21T12:06:45;0.50;;;0.50;;
61291;SDS011;47165;42.664;23.368;2022-09-21T12:17:47;1.05;;;0.50;;
61291;SDS011;47165;42.664;23.368;2022-09-21T12:25:26;1.55;;;0.38;;
61291;SDS011;47165;42.664;23.368;2022-09-21T12:30:25;0.75;;;0.50;;
61291;SDS011;47165;42.664;23.368;2022-09-21T12:37:56;0.55;;;0.40;;
61291;SDS011;47165;42.664;23.368;2022-09-21T12:43:04;0.73;;;0.40;;
61291;SDS011;47165;42.664;23.368;2022-09-21T12:45:34;0.82;;;0.40;;
61291;SDS011;47165;42.664;23.368;2022-09-21T12:51:09;0.70;;;0.47;;
61291;SDS011;47165;42.664;23.368;2022-09-21T12:53:46;0.60;;;0.40;;
61291;SDS011;47165;42.664;23.368;2022-09-21T13:09:47;0.98;;;0.60;;
61291;SDS011;47165;42.664;23.368;2022-09-21T13:12:19;2.05;;;1.33;;
61291;SDS011;47165;42.664;23.368;2022-09-21T13:14:55;2.88;;;2.05;;
61291;SDS011;47165;42.664;23.368;2022-09-21T13:17:42;2.50;;;1.27;;
61291;SDS011;47165;42.664;23.368;2022-09-21T13:20:17;1.23;;;0.82;;
61291;SDS011;47165;42.664;23.368;2022-09-21T13:22:45;0.95;;;0.80;;
61291;SDS011;47165;42.664;23.368;2022-09-21T13:25:20;1.45;;;0.98;;
61291;SDS011;47165;42.664;23.368;2022-09-21T13:30:38;1.50;;;0.75;;
61291;SDS011;47165;42.664;23.368;2022-09-21T13:41:40;2.65;;;0.60;;
61291;SDS011;47165;42.664;23.368;2022-09-21T13:49:01;1.48;;;0.40;;
61291;SDS011;47165;42.664;23.368;2022-09-21T13:51:28;0.40;;;0.40;;
61291;SDS011;47165;42.664;23.368;2022-09-21T13:53:57;0.77;;;0.60;;
61291;SDS011;47165;42.664;23.368;2022-09-21T13:56:25;0.85;;;0.40;;
61291;SDS011;47165;42.664;23.368;2022-09-21T13:58:53;1.83;;;1.23;;
61291;SDS011;47165;42.664;23.368;2022-09-21T14:01:29;5.95;;;2.88;;
61291;SDS011;47165;42.664;23.368;2022-09-21T14:03:58;1.20;;;0.85;;
61291;SDS011;47165;42.664;23.368;2022-09-21T14:06:28;0.70;;;0.50;;
61291;SDS011;47165;42.664;23.368;2022-09-21T14:11:36;1.20;;;0.80;;
61291;SDS011;47165;42.664;23.368;2022-09-21T14:14:13;1.05;;;0.60;;
61291;SDS011;47165;42.664;23.368;2022-09-21T14:16:49;1.10;;;0.73;;
61291;SDS011;47165;42.664;23.368;2022-09-21T14:24:38;1.45;;;1.02;;
61291;SDS011;47165;42.664;23.368;2022-09-21T14:27:49;1.20;;;1.10;;
61291;SDS011;47165;42.664;23.368;2022-09-21T14:30:04;0.93;;;0.68;;
61291;SDS011;47165;42.664;23.368;2022-09-21T14:32:52;5.50;;;1.23;;
61291;SDS011;47165;42.664;23.368;2022-09-21T14:35:25;1.60;;;0.95;;
61291;SDS011;47165;42.664;23.368;2022-09-21T14:37:55;1.67;;;1.38;;
61291;SDS011;47165;42.664;23.368;2022-09-21T14:40:31;1.73;;;0.98;;
61291;SDS011;47165;42.664;23.368;2022-09-21T14:43:05;1.83;;;1.10;;
61291;SDS011;47165;42.664;23.368;2022-09-21T14:51:21;2.33;;;1.10;;
61291;SDS011;47165;42.664;23.368;2022-09-21T14:53:54;3.00;;;1.15;;
61291;SDS011;47165;42.664;23.368;2022-09-21T14:56:34;1.73;;;0.98;;
61291;SDS011;47165;42.664;23.368;2022-09-21T15:02:19;1.08;;;0.88;;
61291;SDS011;47165;42.664;23.368;2022-09-21T15:07:30;2.22;;;1.48;;
61291;SDS011;47165;42.664;23.368;2022-09-21T15:18:44;1.67;;;0.93;;
61291;SDS011;47165;42.664;23.368;2022-09-21T15:21:21;1.25;;;0.88;;
61291;SDS011;47165;42.664;23.368;2022-09-21T15:23:48;1.88;;;1.20;;
61291;SDS011;47165;42.664;23.368;2022-09-21T15:26:15;3.72;;;1.00;;
61291;SDS011;47165;42.664;23.368;2022-09-21T15:28:48;2.08;;;1.05;;
61291;SDS011;47165;42.664;23.368;2022-09-21T15:31:18;1.05;;;0.98;;
61291;SDS011;47165;42.664;23.368;2022-09-21T15:33:43;1.17;;;1.05;;
61291;SDS011;47165;42.664;23.368;2022-09-21T15:36:12;1.60;;;1.20;;
61291;SDS011;47165;42.664;23.368;2022-09-21T15:38:48;2.10;;;1.13;;
61291;SDS011;47165;42.664;23.368;2022-09-21T15:44:17;1.17;;;0.85;;
61291;SDS011;47165;42.664;23.368;2022-09-21T15:46:47;1.10;;;0.88;;
61291;SDS011;47165;42.664;23.368;2022-09-21T15:49:21;1.58;;;1.05;;
61291;SDS011;47165;42.664;23.368;2022-09-21T15:51:49;3.28;;;1.15;;
61291;SDS011;47165;42.664;23.368;2022-09-21T15:54:25;2.65;;;1.10;;
61291;SDS011;47165;42.664;23.368;2022-09-21T15:57:02;1.75;;;0.95;;
61291;SDS011;47165;42.664;23.368;2022-09-21T15:59:32;1.52;;;1.00;;
61291;SDS011;47165;42.664;23.368;2022-09-21T16:01:59;2.22;;;0.98;;
61291;SDS011;47165;42.664;23.368;2022-09-21T16:04:33;0.80;;;0.73;;
61291;SDS011;47165;42.664;23.368;2022-09-21T16:07:06;1.75;;;1.10;;
61291;SDS011;47165;42.664;23.368;2022-09-21T16:09:49;1.92;;;1.08;;
61291;SDS011;47165;42.664;23.368;2022-09-21T16:14:50;1.17;;;0.93;;
61291;SDS011;47165;42.664;23.368;2022-09-21T16:17:20;0.65;;;0.52;;
61291;SDS011;47165;42.664;23.368;2022-09-21T16:24:56;0.95;;;0.80;;
61291;SDS011;47165;42.664;23.368;2022-09-21T16:27:25;1.77;;;1.00;;
61291;SDS011;47165;42.664;23.368;2022-09-21T16:29:53;0.90;;;0.80;;
61291;SDS011;47165;42.664;23.368;2022-09-21T16:34:51;1.48;;;0.80;;
61291;SDS011;47165;42.664;23.368;2022-09-21T16:39:44;1.55;;;1.05;;
61291;SDS011;47165;42.664;23.368;2022-09-21T16:42:10;1.95;;;0.90;;
61291;SDS011;47165;42.664;23.368;2022-09-21T16:44:36;1.67;;;1.20;;
61291;SDS011;47165;42.664;23.368;2022-09-21T16:47:12;3.90;;;1.25;;
61291;SDS011;47165;42.664;23.368;2022-09-21T16:49:41;1.30;;;0.90;;
61291;SDS011;47165;42.664;23.368;2022-09-21T16:52:06;1.58;;;1.27;;
61291;SDS011;47165;42.664;23.368;2022-09-21T16:54:32;3.55;;;1.17;;
61291;SDS011;47165;42.664;23.368;2022-09-21T16:57:01;1.25;;;1.08;;
61291;SDS011;47165;42.664;23.368;2022-09-21T16:59:29;1.98;;;0.93;;
61291;SDS011;47165;42.664;23.368;2022-09-21T17:01:57;5.63;;;1.40;;
61291;SDS011;47165;42.664;23.368;2022-09-21T17:04:27;3.03;;;1.23;;
61291;SDS011;47165;42.664;23.368;2022-09-21T17:06:54;2.38;;;1.08;;
61291;SDS011;47165;42.664;23.368;2022-09-21T17:11:45;1.42;;;1.27;;
61291;SDS011;47165;42.664;23.368;2022-09-21T17:14:12;2.42;;;1.55;;
61291;SDS011;47165;42.664;23.368;2022-09-21T17:16:43;4.15;;;1.75;;
61291;SDS011;47165;42.664;23.368;2022-09-21T17:19:11;2.65;;;1.30;;
61291;SDS011;47165;42.664;23.368;2022-09-21T17:21:37;3.90;;;1.00;;
61291;SDS011;47165;42.664;23.368;2022-09-21T17:24:03;2.20;;;1.33;;
61291;SDS011;47165;42.664;23.368;2022-09-21T17:26:29;3.25;;;1.48;;
61291;SDS011;47165;42.664;23.368;2022-09-21T17:28:55;3.25;;;1.38;;
61291;SDS011;47165;42.664;23.368;2022-09-21T17:31:20;2.67;;;1.63;;
61291;SDS011;47165;42.664;23.368;2022-09-21T17:33:48;2.45;;;1.17;;
61291;SDS011;47165;42.664;23.368;2022-09-21T17:36:16;4.88;;;2.40;;
61291;SDS011;47165;42.664;23.368;2022-09-21T17:38:42;3.85;;;2.30;;
61291;SDS011;47165;42.664;23.368;2022-09-21T17:41:24;4.90;;;2.67;;
61291;SDS011;47165;42.664;23.368;2022-09-21T17:44:13;3.65;;;2.60;;
61291;SDS011;47165;42.664;23.368;2022-09-21T17:46:50;5.63;;;3.17;;
61291;SDS011;47165;42.664;23.368;2022-09-21T17:49:22;10.02;;;3.08;;
61291;SDS011;47165;42.664;23.368;2022-09-21T17:51:48;5.90;;;3.00;;
61291;SDS011;47165;42.664;23.368;2022-09-21T17:54:32;4.95;;;3.15;;
61291;SDS011;47165;42.664;23.368;2022-09-21T17:57:06;4.43;;;2.50;;
61291;SDS011;47165;42.664;23.368;2022-09-21T17:59:42;4.90;;;3.33;;
61291;SDS011;47165;42.664;23.368;2022-09-21T18:02:24;6.95;;;3.03;;
61291;SDS011;47165;42.664;23.368;2022-09-21T18:04:51;5.35;;;3.45;;
61291;SDS011;47165;42.664;23.368;2022-09-21T18:07:22;3.33;;;2.42;;
61291;SDS011;47165;42.664;23.368;2022-09-21T18:09:49;7.65;;;2.97;;
61291;SDS011;47165;42.664;23.368;2022-09-21T18:26:03;4.65;;;3.03;;
61291;SDS011;47165;42.664;23.368;2022-09-21T18:36:49;4.03;;;2.58;;
61291;SDS011;47165;42.664;23.368;2022-09-21T18:39:46;5.60;;;3.45;;
61291;SDS011;47165;42.664;23.368;2022-09-21T18:53:58;5.10;;;2.47;;
61291;SDS011;47165;42.664;23.368;2022-09-21T18:56:14;7.82;;;4.63;;
61291;SDS011;47165;42.664;23.368;2022-09-21T18:58:40;7.93;;;4.00;;
61291;SDS011;47165;42.664;23.368;2022-09-21T19:01:12;4.60;;;3.38;;
61291;SDS011;47165;42.664;23.368;2022-09-21T19:03:39;6.18;;;2.85;;